createdAt,value
2018-03-29T00:01:47.968Z,87.88
2018-03-29T00:04:15.426Z,88.89
2018-03-29T00:06:42.814Z,89.37
2018-03-29T00:09:10.236Z,90.71
2018-03-29T00:11:37.718Z,91.91
2018-03-29T00:14:05.122Z,92.69
2018-03-29T00:16:32.499Z,93.09
2018-03-29T00:18:59.898Z,93.46
2018-03-29T00:21:27.286Z,94.00
2018-03-29T00:23:54.685Z,94.25
2018-03-29T00:26:22.144Z,93.95
2018-03-29T00:28:49.547Z,93.59
2018-03-29T00:31:16.935Z,93.41
2018-03-29T00:33:44.419Z,93.77
2018-03-29T00:36:11.878Z,93.80
2018-03-29T00:38:39.638Z,94.15
2018-03-29T00:41:07.025Z,94.55
2018-03-29T00:43:34.451Z,94.34
2018-03-29T00:46:01.847Z,93.85
2018-03-29T00:48:29.239Z,93.76
2018-03-29T00:50:56.633Z,93.81
2018-03-29T00:53:35.847Z,93.83
2018-03-29T00:56:03.234Z,94.19
2018-03-29T00:58:31.547Z,94.67
2018-03-29T01:00:58.939Z,94.97
2018-03-29T01:03:26.356Z,95.22
2018-03-29T01:05:53.747Z,95.51
2018-03-29T01:08:21.127Z,95.92
2018-03-29T01:10:48.525Z,96.24
2018-03-29T01:13:15.914Z,95.76
2018-03-29T01:15:43.301Z,95.07
2018-03-29T01:18:10.697Z,94.37
2018-03-29T01:20:38.179Z,93.90
2018-03-29T01:23:05.566Z,93.88
2018-03-29T01:25:32.987Z,94.09
2018-03-29T01:28:00.375Z,93.87
2018-03-29T01:30:27.797Z,94.13
2018-03-29T01:32:55.184Z,94.55
2018-03-29T01:35:22.615Z,94.59
2018-03-29T01:37:50.081Z,94.94
2018-03-29T01:40:17.463Z,95.22
2018-03-29T01:42:44.990Z,95.20
2018-03-29T01:45:12.407Z,95.42
2018-03-29T01:47:39.790Z,95.40
2018-03-29T01:50:07.182Z,95.26
2018-03-29T01:52:34.563Z,95.45
2018-03-29T01:55:01.955Z,95.29
2018-03-29T01:57:29.344Z,95.35
2018-03-29T01:59:56.732Z,95.42
2018-03-29T02:02:24.123Z,95.50
2018-03-29T02:04:51.610Z,95.44
2018-03-29T02:07:18.998Z,95.62
2018-03-29T02:09:46.433Z,95.70
2018-03-29T02:12:13.823Z,95.52
2018-03-29T02:14:41.231Z,95.45
2018-03-29T02:17:08.687Z,95.25
2018-03-29T02:19:36.079Z,94.80
2018-03-29T02:22:03.512Z,94.96
2018-03-29T02:24:30.970Z,95.28
2018-03-29T02:26:58.406Z,95.11
2018-03-29T02:29:25.794Z,95.42
2018-03-29T02:31:53.192Z,95.59
2018-03-29T02:34:20.570Z,95.87
2018-03-29T02:36:48.035Z,95.88
2018-03-29T02:39:15.410Z,96.06
2018-03-29T02:41:42.813Z,95.91
2018-03-29T02:44:10.295Z,95.90
2018-03-29T02:46:37.693Z,95.61
2018-03-29T02:49:05.108Z,95.42
2018-03-29T02:51:32.504Z,95.59
2018-03-29T02:53:59.888Z,95.59
2018-03-29T02:56:27.268Z,95.60
2018-03-29T02:58:54.747Z,95.77
2018-03-29T03:01:22.176Z,95.73
2018-03-29T03:03:49.560Z,95.60
2018-03-29T03:06:16.954Z,95.57
2018-03-29T03:11:14.395Z,96.16
2018-03-29T03:13:41.786Z,96.32
2018-03-29T03:16:09.423Z,96.17
2018-03-29T03:18:36.899Z,95.99
2018-03-29T03:21:04.274Z,96.05
2018-03-29T03:23:31.658Z,95.94
2018-03-29T03:25:59.063Z,95.80
2018-03-29T03:28:26.519Z,95.79
2018-03-29T03:30:53.920Z,95.60
2018-03-29T03:33:21.335Z,95.65
2018-03-29T03:35:48.702Z,95.60
2018-03-29T03:38:16.091Z,95.17
2018-03-29T03:40:43.487Z,94.94
2018-03-29T03:43:10.874Z,94.71
2018-03-29T03:45:39.020Z,94.84
2018-03-29T03:48:06.414Z,94.57
2018-03-29T03:50:33.798Z,94.28
2018-03-29T03:53:01.185Z,94.44
2018-03-29T03:55:28.558Z,94.64
2018-03-29T03:57:55.946Z,94.43
2018-03-29T04:00:23.352Z,94.39
2018-03-29T04:02:50.729Z,94.49
2018-03-29T04:05:18.163Z,94.57
2018-03-29T04:07:45.617Z,94.78
2018-03-29T04:10:13.020Z,94.92
2018-03-29T04:12:40.418Z,95.01
2018-03-29T04:15:07.799Z,94.96
2018-03-29T04:17:35.190Z,94.85
2018-03-29T04:20:02.590Z,94.66
2018-03-29T04:22:29.979Z,94.70
2018-03-29T04:24:57.358Z,94.76
2018-03-29T04:27:24.846Z,95.05
2018-03-29T04:29:52.301Z,94.90
2018-03-29T04:32:20.590Z,94.72
2018-03-29T04:34:48.046Z,94.31
2018-03-29T04:37:15.421Z,94.72
2018-03-29T04:39:42.839Z,94.60
2018-03-29T04:42:10.222Z,94.60
2018-03-29T04:44:37.602Z,94.67
2018-03-29T04:47:04.980Z,94.88
2018-03-29T04:49:32.358Z,94.78
2018-03-29T04:51:59.737Z,95.11
2018-03-29T04:54:27.198Z,94.83
2018-03-29T04:56:54.646Z,95.20
2018-03-29T04:59:22.102Z,95.59
2018-03-29T05:01:49.563Z,95.58
2018-03-29T05:04:16.953Z,95.49
2018-03-29T05:06:44.326Z,95.07
2018-03-29T05:09:11.722Z,95.00
2018-03-29T05:11:39.101Z,94.88
2018-03-29T05:14:06.546Z,94.92
2018-03-29T05:16:34.000Z,95.13
2018-03-29T05:19:01.455Z,95.23
2018-03-29T05:21:28.921Z,95.22
2018-03-29T05:23:56.341Z,94.98
2018-03-29T05:26:23.931Z,94.84
2018-03-29T05:28:51.406Z,94.65
2018-03-29T05:31:18.806Z,94.99
2018-03-29T05:33:46.219Z,95.04
2018-03-29T05:36:13.675Z,95.07
2018-03-29T05:38:41.066Z,94.61
2018-03-29T05:41:08.453Z,94.89
2018-03-29T05:43:35.831Z,95.04
2018-03-29T05:46:03.222Z,95.10
2018-03-29T05:48:30.606Z,94.96
2018-03-29T05:50:58.007Z,94.94
2018-03-29T05:53:25.394Z,94.93
2018-03-29T05:55:52.814Z,94.87
2018-03-29T05:58:20.202Z,94.67
2018-03-29T06:00:47.597Z,94.80
2018-03-29T06:03:14.992Z,94.62
2018-03-29T06:05:42.439Z,93.88
2018-03-29T06:08:09.822Z,94.06
2018-03-29T06:10:37.242Z,93.99
2018-03-29T06:13:04.626Z,93.61
2018-03-29T06:15:32.790Z,93.59
2018-03-29T06:18:01.074Z,93.66
2018-03-29T06:20:28.450Z,93.46
2018-03-29T06:22:55.858Z,93.25
2018-03-29T06:25:23.246Z,93.11
2018-03-29T06:27:50.639Z,93.08
2018-03-29T06:30:18.028Z,92.97
2018-03-29T06:32:45.419Z,92.60
2018-03-29T06:35:12.835Z,92.62
2018-03-29T06:37:40.223Z,92.14
2018-03-29T06:40:07.616Z,91.91
2018-03-29T06:42:34.999Z,91.67
2018-03-29T06:45:02.380Z,91.85
2018-03-29T06:47:29.763Z,91.89
2018-03-29T06:49:57.162Z,91.91
2018-03-29T06:52:24.566Z,91.83
2018-03-29T06:54:51.967Z,91.80
2018-03-29T06:57:19.431Z,90.16
2018-03-29T06:59:46.812Z,90.09
2018-03-29T07:02:14.257Z,90.36
2018-03-29T07:04:41.692Z,90.16
2018-03-29T07:07:09.152Z,88.80
2018-03-29T07:09:36.527Z,88.16
2018-03-29T07:12:03.925Z,88.51
2018-03-29T07:14:31.300Z,87.74
2018-03-29T07:16:58.771Z,88.23
2018-03-29T07:19:26.234Z,87.06
2018-03-29T07:21:53.678Z,84.58
2018-03-29T07:24:21.055Z,84.21
2018-03-29T07:26:48.459Z,84.70
2018-03-29T07:29:15.835Z,82.26
2018-03-29T07:31:43.222Z,79.16
2018-03-29T07:34:10.633Z,76.82
2018-03-29T07:36:38.057Z,77.47
2018-03-29T07:39:05.398Z,79.21
2018-03-29T07:41:32.826Z,79.77
2018-03-29T07:44:00.282Z,81.62
2018-03-29T07:46:27.666Z,81.61
2018-03-29T07:48:55.056Z,81.69
2018-03-29T07:51:22.432Z,81.90
2018-03-29T07:53:49.822Z,81.65
2018-03-29T07:56:17.211Z,81.08
2018-03-29T07:58:44.598Z,81.11
2018-03-29T08:01:12.066Z,80.17
2018-03-29T08:03:39.454Z,79.97
2018-03-29T08:06:06.880Z,79.62
2018-03-29T08:08:34.229Z,78.74
2018-03-29T08:11:01.619Z,78.13
2018-03-29T08:13:29.034Z,78.18
2018-03-29T08:15:56.416Z,77.60
2018-03-29T08:18:23.798Z,77.31
2018-03-29T08:20:51.210Z,76.01
2018-03-29T08:23:18.592Z,77.84
2018-03-29T08:25:45.970Z,77.55
2018-03-29T08:28:13.358Z,75.65
2018-03-29T08:30:40.828Z,71.51
2018-03-29T08:33:08.241Z,70.04
2018-03-29T08:35:35.641Z,69.14
2018-03-29T08:38:03.099Z,65.36
2018-03-29T08:40:30.490Z,62.81
2018-03-29T08:42:57.922Z,62.50
2018-03-29T08:45:25.307Z,62.73
2018-03-29T08:47:52.863Z,64.50
2018-03-29T08:50:20.310Z,69.73
2018-03-29T08:52:47.730Z,71.26
2018-03-29T08:55:15.118Z,71.46
2018-03-29T08:57:42.507Z,73.27
2018-03-29T09:00:09.902Z,72.19
2018-03-29T09:02:37.274Z,72.52
2018-03-29T09:05:04.659Z,71.35
2018-03-29T09:07:32.067Z,71.18
2018-03-29T09:09:59.454Z,70.98
2018-03-29T09:12:26.832Z,70.27
2018-03-29T09:14:54.214Z,68.20
2018-03-29T09:17:21.683Z,67.31
2018-03-29T09:19:49.094Z,67.45
2018-03-29T09:22:16.471Z,65.31
2018-03-29T09:24:43.954Z,65.15
2018-03-29T09:27:11.336Z,64.71
2018-03-29T09:29:38.759Z,63.61
2018-03-29T09:32:06.218Z,65.64
2018-03-29T09:34:33.675Z,64.28
2018-03-29T09:37:01.126Z,66.45
2018-03-29T09:39:28.587Z,67.26
2018-03-29T09:41:56.039Z,67.94
2018-03-29T09:44:23.418Z,68.23
2018-03-29T09:46:50.807Z,68.29
2018-03-29T09:49:18.182Z,69.75
2018-03-29T09:51:45.570Z,70.09
2018-03-29T09:54:13.026Z,71.02
2018-03-29T09:56:40.410Z,71.28
2018-03-29T09:59:08.690Z,70.23
2018-03-29T10:01:36.092Z,69.93
2018-03-29T10:04:09.177Z,70.42
2018-03-29T10:06:41.504Z,70.32
2018-03-29T10:09:08.887Z,69.19
2018-03-29T10:11:36.278Z,68.93
2018-03-29T10:14:03.654Z,68.82
2018-03-29T10:16:31.039Z,69.08
2018-03-29T10:18:58.427Z,68.40
2018-03-29T10:21:25.835Z,68.72
2018-03-29T10:23:53.215Z,70.19
2018-03-29T10:26:20.599Z,69.13
2018-03-29T10:28:47.978Z,69.88
2018-03-29T10:31:15.391Z,69.29
2018-03-29T10:33:42.775Z,69.05
2018-03-29T10:36:10.164Z,69.04
2018-03-29T10:38:37.599Z,68.41
2018-03-29T10:41:04.970Z,68.81
2018-03-29T10:43:32.358Z,69.87
2018-03-29T10:45:59.747Z,71.29
2018-03-29T10:48:27.157Z,71.61
2018-03-29T10:50:54.522Z,71.15
2018-03-29T10:53:21.914Z,67.94
2018-03-29T10:55:49.371Z,66.26
2018-03-29T10:58:16.763Z,65.78
2018-03-29T11:00:44.142Z,64.70
2018-03-29T11:03:11.646Z,65.64
2018-03-29T11:05:38.987Z,65.40
2018-03-29T11:08:06.375Z,65.71
2018-03-29T11:10:33.754Z,64.37
2018-03-29T11:13:01.140Z,68.53
2018-03-29T11:15:28.614Z,67.67
2018-03-29T11:17:56.011Z,68.83
2018-03-29T11:20:23.422Z,67.89
2018-03-29T11:22:50.794Z,66.24
2018-03-29T11:25:18.239Z,67.04
2018-03-29T11:27:45.618Z,66.41
2018-03-29T11:30:13.008Z,66.16
2018-03-29T11:32:40.383Z,66.81
2018-03-29T11:35:07.854Z,66.51
2018-03-29T11:37:35.240Z,67.80
2018-03-29T11:40:02.687Z,68.94
2018-03-29T11:42:30.063Z,71.89
2018-03-29T11:44:57.456Z,74.38
2018-03-29T11:47:24.834Z,74.55
2018-03-29T11:49:52.237Z,75.18
2018-03-29T11:52:19.606Z,72.71
2018-03-29T11:54:47.007Z,70.92
2018-03-29T11:57:14.423Z,69.68
2018-03-29T11:59:41.977Z,67.00
2018-03-29T12:02:09.363Z,66.94
2018-03-29T12:04:36.751Z,65.02
2018-03-29T12:07:04.126Z,64.71
2018-03-29T12:09:31.516Z,65.82
2018-03-29T12:11:58.955Z,65.81
2018-03-29T12:14:26.338Z,62.38
2018-03-29T12:16:53.710Z,62.81
2018-03-29T12:19:21.120Z,61.61
2018-03-29T12:21:48.498Z,60.78
2018-03-29T12:24:15.890Z,61.91
2018-03-29T12:26:43.281Z,59.98
2018-03-29T12:29:10.662Z,58.18
2018-03-29T12:31:38.097Z,58.01
2018-03-29T12:34:05.478Z,57.50
2018-03-29T12:36:32.874Z,55.57
2018-03-29T12:39:00.366Z,56.11
2018-03-29T12:41:27.763Z,55.38
2018-03-29T12:43:55.175Z,55.24
2018-03-29T12:46:22.574Z,55.16
2018-03-29T12:48:49.952Z,52.59
2018-03-29T12:51:17.452Z,50.62
2018-03-29T12:53:44.846Z,48.05
2018-03-29T12:56:22.082Z,50.04
2018-03-29T12:58:49.462Z,48.88
2018-03-29T13:01:16.922Z,47.20
2018-03-29T13:03:44.302Z,49.35
2018-03-29T13:06:11.703Z,47.81
2018-03-29T13:08:39.083Z,49.34
2018-03-29T13:11:06.466Z,49.77
2018-03-29T13:13:33.851Z,50.24
2018-03-29T13:16:01.244Z,49.50
2018-03-29T13:18:28.685Z,49.99
2018-03-29T13:20:56.134Z,50.69
2018-03-29T13:23:23.599Z,49.10
2018-03-29T13:25:50.995Z,48.84
2018-03-29T13:28:18.410Z,47.92
2018-03-29T13:30:45.803Z,50.22
2018-03-29T13:33:13.186Z,56.68
2018-03-29T13:35:40.587Z,57.71
2018-03-29T13:38:07.963Z,57.27
2018-03-29T13:40:35.345Z,56.60
2018-03-29T13:43:02.838Z,55.15
2018-03-29T13:45:30.227Z,56.29
2018-03-29T13:47:57.627Z,55.00
2018-03-29T13:50:25.107Z,55.97
2018-03-29T13:52:52.512Z,52.79
2018-03-29T13:55:19.893Z,53.36
2018-03-29T13:57:47.279Z,54.57
2018-03-29T14:00:14.671Z,53.68
2018-03-29T14:02:42.064Z,53.61
2018-03-29T14:05:09.542Z,54.41
2018-03-29T14:07:36.934Z,54.42
2018-03-29T14:10:04.310Z,54.57
2018-03-29T14:12:31.805Z,54.30
2018-03-29T14:14:59.183Z,53.93
2018-03-29T14:17:26.639Z,53.83
2018-03-29T14:19:54.079Z,54.65
2018-03-29T14:22:21.500Z,56.42
2018-03-29T14:24:48.891Z,56.42
2018-03-29T14:27:16.274Z,57.94
2018-03-29T14:29:43.707Z,58.64
2018-03-29T14:32:11.091Z,58.60
2018-03-29T14:34:38.483Z,59.16
2018-03-29T14:37:05.883Z,59.07
2018-03-29T14:39:33.322Z,59.03
2018-03-29T14:42:00.783Z,58.89
2018-03-29T14:44:28.174Z,59.67
2018-03-29T14:46:55.574Z,61.00
2018-03-29T14:49:22.951Z,61.54
2018-03-29T14:51:50.419Z,61.99
2018-03-29T14:54:17.854Z,62.58
2018-03-29T14:56:46.249Z,63.00
2018-03-29T14:59:13.691Z,63.06
2018-03-29T15:01:41.067Z,64.40
2018-03-29T15:04:08.451Z,64.57
2018-03-29T15:06:35.830Z,64.78
2018-03-29T15:09:03.214Z,65.72
2018-03-29T15:11:30.605Z,66.91
2018-03-29T15:13:58.068Z,67.36
2018-03-29T15:16:25.487Z,67.62
2018-03-29T15:18:52.870Z,68.21
2018-03-29T15:21:20.294Z,68.15
2018-03-29T15:23:47.686Z,68.20
2018-03-29T15:26:15.082Z,67.74
2018-03-29T15:28:42.562Z,67.25
2018-03-29T15:31:09.951Z,67.48
2018-03-29T15:33:37.341Z,67.41
2018-03-29T15:36:04.721Z,67.98
2018-03-29T15:38:32.102Z,68.41
2018-03-29T15:40:59.491Z,68.84
2018-03-29T15:43:26.870Z,69.30
2018-03-29T15:45:54.264Z,70.46
2018-03-29T15:48:21.663Z,70.79
2018-03-29T15:50:49.081Z,71.39
2018-03-29T15:53:16.426Z,69.20
2018-03-29T15:55:43.831Z,67.30
2018-03-29T15:58:11.215Z,67.76
2018-03-29T16:00:38.611Z,65.68
2018-03-29T16:03:05.992Z,66.00
2018-03-29T16:05:33.367Z,64.92
2018-03-29T16:08:00.759Z,65.42
2018-03-29T16:10:28.155Z,66.05
2018-03-29T16:12:55.572Z,67.12
2018-03-29T16:15:22.920Z,66.54
2018-03-29T16:17:50.315Z,66.91
2018-03-29T16:20:17.801Z,69.12
2018-03-29T16:22:45.178Z,71.97
2018-03-29T16:25:12.595Z,72.98
2018-03-29T16:27:39.988Z,74.31
2018-03-29T16:30:07.360Z,74.19
2018-03-29T16:32:34.755Z,75.46
2018-03-29T16:35:02.147Z,76.80
2018-03-29T16:37:29.532Z,76.79
2018-03-29T16:39:56.910Z,77.45
2018-03-29T16:42:24.296Z,76.72
2018-03-29T16:44:51.731Z,77.53
2018-03-29T16:47:19.119Z,76.88
2018-03-29T16:49:46.494Z,76.98
2018-03-29T16:52:14.110Z,76.79
2018-03-29T16:54:41.554Z,76.07
2018-03-29T16:57:08.939Z,75.08
2018-03-29T16:59:36.314Z,74.61
2018-03-29T17:02:03.741Z,73.36
2018-03-29T17:04:31.080Z,72.95
2018-03-29T17:06:58.460Z,73.32
2018-03-29T17:09:25.843Z,72.88
2018-03-29T17:11:53.227Z,72.72
2018-03-29T17:14:20.609Z,72.79
2018-03-29T17:16:48.044Z,72.49
2018-03-29T17:19:15.410Z,72.20
2018-03-29T17:21:42.866Z,72.26
2018-03-29T17:24:10.251Z,72.44
2018-03-29T17:26:37.678Z,72.06
2018-03-29T17:29:05.066Z,72.20
2018-03-29T17:31:32.486Z,73.31
2018-03-29T17:33:59.875Z,73.64
2018-03-29T17:36:27.298Z,73.44
2018-03-29T17:38:54.687Z,73.66
2018-03-29T17:41:22.063Z,72.74
2018-03-29T17:43:49.458Z,72.01
2018-03-29T17:46:16.835Z,71.35
2018-03-29T17:48:44.211Z,70.69
2018-03-29T17:51:11.594Z,70.27
2018-03-29T17:53:38.970Z,70.21
2018-03-29T17:56:06.369Z,70.27
2018-03-29T17:58:33.753Z,70.19
2018-03-29T18:01:01.247Z,70.65
2018-03-29T18:03:28.639Z,70.89
2018-03-29T18:05:56.048Z,71.12
2018-03-29T18:08:23.426Z,71.09
2018-03-29T18:10:50.813Z,70.76
2018-03-29T18:13:18.194Z,71.48
2018-03-29T18:15:45.594Z,72.17
2018-03-29T18:18:12.979Z,72.56
2018-03-29T18:20:40.388Z,73.45
2018-03-29T18:23:07.775Z,73.27
2018-03-29T18:25:35.200Z,73.06
2018-03-29T18:28:02.658Z,73.13
2018-03-29T18:30:30.046Z,72.90
2018-03-29T18:32:57.439Z,73.32
2018-03-29T18:35:24.836Z,74.05
2018-03-29T18:37:52.216Z,74.58
2018-03-29T18:40:19.605Z,74.41
2018-03-29T18:42:46.979Z,74.36
2018-03-29T18:45:14.382Z,74.56
2018-03-29T18:47:41.811Z,74.47
2018-03-29T18:50:09.199Z,74.30
2018-03-29T18:52:36.587Z,74.41
2018-03-29T18:55:04.064Z,74.39
2018-03-29T18:57:31.519Z,74.58
2018-03-29T18:59:58.898Z,74.49
2018-03-29T19:02:26.292Z,74.71
2018-03-29T19:04:53.666Z,75.32
2018-03-29T19:07:21.142Z,77.39
2018-03-29T19:09:48.607Z,76.74
2018-03-29T19:12:16.063Z,75.81
2018-03-29T19:14:43.518Z,75.35
2018-03-29T19:17:10.903Z,75.40
2018-03-29T19:19:38.284Z,75.45
2018-03-29T19:22:05.783Z,75.52
2018-03-29T19:24:33.166Z,76.15
2018-03-29T19:27:00.559Z,77.12
2018-03-29T19:29:27.941Z,77.46
2018-03-29T19:31:55.355Z,77.05
2018-03-29T19:34:22.746Z,76.45
2018-03-29T19:36:50.141Z,75.91
2018-03-29T19:39:17.514Z,75.57
2018-03-29T19:41:44.910Z,75.43
2018-03-29T19:44:12.282Z,75.64
2018-03-29T19:46:39.689Z,75.53
2018-03-29T19:49:07.076Z,75.44
2018-03-29T19:51:34.473Z,75.24
2018-03-29T19:54:01.959Z,75.35
2018-03-29T19:56:29.349Z,75.54
2018-03-29T19:58:56.772Z,76.17
2018-03-29T20:01:24.154Z,76.50
2018-03-29T20:03:51.563Z,77.42
2018-03-29T20:06:18.948Z,77.15
2018-03-29T20:08:46.359Z,77.30
2018-03-29T20:11:13.752Z,76.97
2018-03-29T20:13:41.155Z,77.27
2018-03-29T20:16:08.546Z,77.23
2018-03-29T20:18:35.965Z,77.49
2018-03-29T20:21:03.358Z,76.50
2018-03-29T20:23:30.770Z,76.11
2018-03-29T20:25:58.166Z,75.71
2018-03-29T20:28:25.582Z,75.15
2018-03-29T20:30:53.044Z,75.22
2018-03-29T20:33:20.442Z,74.79
2018-03-29T20:35:47.831Z,74.43
2018-03-29T20:38:15.234Z,74.50
2018-03-29T20:40:42.680Z,75.10
2018-03-29T20:43:10.067Z,74.86
2018-03-29T20:45:37.475Z,75.11
2018-03-29T20:48:04.990Z,74.80
2018-03-29T20:50:32.377Z,75.10
2018-03-29T20:52:59.794Z,75.79
2018-03-29T20:55:27.252Z,76.51
2018-03-29T20:57:54.655Z,76.40
2018-03-29T21:00:22.042Z,78.09
2018-03-29T21:02:49.442Z,77.04
2018-03-29T21:05:16.830Z,76.59
2018-03-29T21:07:44.223Z,76.27
2018-03-29T21:10:11.623Z,76.46
2018-03-29T21:12:40.122Z,76.76
2018-03-29T21:15:07.521Z,76.79
2018-03-29T21:17:34.987Z,76.81
2018-03-29T21:20:02.397Z,76.64
2018-03-29T21:22:29.885Z,76.43
2018-03-29T21:24:57.737Z,76.29
2018-03-29T21:27:25.379Z,76.54
2018-03-29T21:29:52.867Z,76.92
2018-03-29T21:32:20.323Z,76.89
2018-03-29T21:34:47.722Z,76.62
2018-03-29T21:37:15.144Z,76.62
2018-03-29T21:39:42.596Z,77.08
2018-03-29T21:42:10.042Z,77.14
2018-03-29T21:44:37.439Z,77.27
2018-03-29T21:47:04.839Z,79.16
2018-03-29T21:49:32.248Z,79.83
2018-03-29T21:51:59.643Z,79.06
2018-03-29T21:54:27.044Z,80.71
2018-03-29T21:56:54.441Z,79.87
2018-03-29T21:59:21.878Z,79.18
2018-03-29T22:01:49.280Z,78.59
2018-03-29T22:04:16.674Z,78.68
2018-03-29T22:06:44.147Z,78.50
2018-03-29T22:09:11.541Z,78.07
2018-03-29T22:11:38.972Z,77.56
2018-03-29T22:14:06.364Z,77.93
2018-03-29T22:16:33.763Z,77.66
2018-03-29T22:19:01.159Z,77.16
2018-03-29T22:21:28.555Z,76.96
2018-03-29T22:23:55.942Z,77.05
2018-03-29T22:26:23.390Z,76.94
2018-03-29T22:28:50.745Z,76.77
2018-03-29T22:31:18.140Z,77.38
2018-03-29T22:33:45.535Z,77.89
2018-03-29T22:36:13.029Z,79.43
2018-03-29T22:38:40.487Z,79.86
2018-03-29T22:41:07.890Z,79.91
2018-03-29T22:43:35.291Z,79.72
2018-03-29T22:46:02.700Z,79.89
2018-03-29T22:48:30.101Z,80.02
2018-03-29T22:50:57.508Z,79.25
2018-03-29T22:53:24.903Z,78.85
2018-03-29T22:55:52.356Z,78.68
2018-03-29T22:58:19.751Z,78.04
2018-03-29T23:00:47.156Z,77.65
2018-03-29T23:03:14.655Z,77.37
2018-03-29T23:05:42.054Z,77.74
2018-03-29T23:08:09.451Z,79.64
2018-03-29T23:10:36.866Z,79.24
2018-03-29T23:13:04.268Z,79.11
2018-03-29T23:15:31.707Z,79.44
2018-03-29T23:17:59.103Z,79.93
2018-03-29T23:20:26.506Z,79.92
2018-03-29T23:22:53.909Z,80.22
2018-03-29T23:25:21.419Z,81.08
2018-03-29T23:27:48.867Z,82.51
2018-03-29T23:30:16.284Z,81.61
2018-03-29T23:32:43.718Z,80.55
2018-03-29T23:35:11.150Z,80.02
2018-03-29T23:37:38.544Z,80.07
2018-03-29T23:40:05.937Z,79.68
2018-03-29T23:42:33.342Z,79.36
2018-03-29T23:45:01.678Z,79.15
2018-03-29T23:47:29.066Z,79.26
2018-03-29T23:49:56.462Z,78.92
2018-03-29T23:52:23.863Z,78.59
2018-03-29T23:54:51.254Z,78.26
2018-03-29T23:57:18.655Z,77.97
2018-03-29T23:59:46.055Z,78.05
